Time;durP1;ratioP1;P1;durP2;ratioP2;P2;SDS_P1;SDS_P2;PMS_P1;PMS_P2;Temp;Humidity;BMP_temperature;BMP_pressure;BME280_temperature;BME280_humidity;BME280_pressure;Samples;Min_cycle;Max_cycle;Signal;HPM_P1;HPM_P2
2023/10/03 00:02:06;;;;;;;49.63;23.65;;;;;;;;;;5098006;27;20128;-62
2023/10/03 00:04:32;;;;;;;44.40;21.20;;;;;;;;;;5097954;28;20047;-62
2023/10/03 00:06:58;;;;;;;45.40;21.83;;;;;;;;;;5095696;28;20151;-62
2023/10/03 00:09:25;;;;;;;51.33;21.98;;;;;;;;;;5071320;28;20637;-62
2023/10/03 00:11:51;;;;;;;45.83;21.60;;;;;;;;;;5093610;28;20114;-63
2023/10/03 00:14:18;;;;;;;48.83;21.73;;;;;;;;;;5077900;28;20751;-62
2023/10/03 00:16:45;;;;;;;48.17;20.95;;;;;;;;;;5093839;28;20054;-60
2023/10/03 00:19:11;;;;;;;49.55;21.45;;;;;;;;;;5086882;28;20052;-60
2023/10/03 00:21:37;;;;;;;45.28;21.15;;;;;;;;;;5088597;28;20057;-60
2023/10/03 00:24:06;;;;;;;49.35;22.40;;;;;;;;;;5097211;28;20052;-60
2023/10/03 00:26:33;;;;;;;46.30;21.48;;;;;;;;;;5085500;28;20040;-61
2023/10/03 00:28:59;;;;;;;48.88;21.52;;;;;;;;;;5090572;28;20048;-61
2023/10/03 00:31:25;;;;;;;43.83;21.45;;;;;;;;;;5089295;28;20075;-61
2023/10/03 00:33:51;;;;;;;48.75;21.27;;;;;;;;;;5090433;28;20066;-61
2023/10/03 00:36:22;;;;;;;44.50;20.25;;;;;;;;;;5103392;28;20051;-61
2023/10/03 00:38:48;;;;;;;44.33;20.90;;;;;;;;;;5102871;28;20044;-61
2023/10/03 00:41:16;;;;;;;47.50;21.73;;;;;;;;;;5111302;28;20757;-61
2023/10/03 00:44:01;;;;;;;41.60;20.73;;;;;;;;;;5106135;27;20067;-61
2023/10/03 00:46:29;;;;;;;49.97;22.38;;;;;;;;;;5107692;27;20160;-62
2023/10/03 00:48:56;;;;;;;48.42;20.85;;;;;;;;;;5113651;27;20051;-62
2023/10/03 00:51:22;;;;;;;47.97;21.25;;;;;;;;;;5103738;28;20081;-61
2023/10/03 00:53:55;;;;;;;51.17;21.63;;;;;;;;;;5107104;27;20468;-61
2023/10/03 00:56:22;;;;;;;42.92;19.58;;;;;;;;;;5087852;28;20087;-62
2023/10/03 00:58:48;;;;;;;46.70;19.60;;;;;;;;;;5106024;28;20069;-61
2023/10/03 01:01:15;;;;;;;50.38;21.02;;;;;;;;;;5097252;28;20043;-61
2023/10/03 01:03:41;;;;;;;49.05;19.42;;;;;;;;;;5097808;28;20043;-62
2023/10/03 01:06:09;;;;;;;44.65;19.67;;;;;;;;;;5091840;28;20493;-61
2023/10/03 01:08:40;;;;;;;44.53;19.10;;;;;;;;;;5095629;28;20082;-61
2023/10/03 01:11:07;;;;;;;45.45;18.50;;;;;;;;;;5089152;28;20090;-62
2023/10/03 01:13:38;;;;;;;41.28;18.77;;;;;;;;;;5115270;27;20126;-61
2023/10/03 01:16:05;;;;;;;43.08;18.90;;;;;;;;;;5104949;28;20054;-62
2023/10/03 01:18:32;;;;;;;41.92;18.45;;;;;;;;;;5101137;28;20050;-62
2023/10/03 01:21:05;;;;;;;48.95;19.20;;;;;;;;;;5102306;27;20040;-62
2023/10/03 01:23:36;;;;;;;43.45;17.48;;;;;;;;;;5101442;28;20052;-61
2023/10/03 01:26:03;;;;;;;46.20;17.63;;;;;;;;;;5099539;28;20123;-62
2023/10/03 01:28:30;;;;;;;39.20;17.40;;;;;;;;;;5100968;28;20039;-61
2023/10/03 01:30:57;;;;;;;43.08;17.02;;;;;;;;;;5097413;28;20045;-62
2023/10/03 01:33:26;;;;;;;40.42;16.40;;;;;;;;;;5098477;28;20169;-61
2023/10/03 01:35:55;;;;;;;36.88;15.57;;;;;;;;;;5075934;28;20074;-61
2023/10/03 01:38:22;;;;;;;41.13;16.75;;;;;;;;;;5089354;28;20040;-61
2023/10/03 01:41:00;;;;;;;34.42;15.27;;;;;;;;;;5087896;28;20548;-61
2023/10/03 01:43:26;;;;;;;38.15;15.45;;;;;;;;;;5101790;27;20529;-61
2023/10/03 01:45:55;;;;;;;39.00;15.68;;;;;;;;;;5090447;28;20050;-61
2023/10/03 01:48:21;;;;;;;40.00;16.38;;;;;;;;;;5105994;27;20045;-61
2023/10/03 01:50:50;;;;;;;36.28;15.70;;;;;;;;;;5103961;28;20044;-61
2023/10/03 01:53:17;;;;;;;39.63;14.77;;;;;;;;;;5102924;28;20051;-61
2023/10/03 01:55:43;;;;;;;41.97;14.70;;;;;;;;;;5096791;27;20127;-61
2023/10/03 01:58:09;;;;;;;39.45;16.15;;;;;;;;;;5100315;28;20456;-61
2023/10/03 02:00:36;;;;;;;43.33;16.35;;;;;;;;;;5094007;28;20040;-61
2023/10/03 02:03:05;;;;;;;40.10;15.85;;;;;;;;;;5099108;28;20047;-61
2023/10/03 02:05:31;;;;;;;37.25;14.00;;;;;;;;;;5078819;28;20073;-61
2023/10/03 02:08:16;;;;;;;38.97;16.33;;;;;;;;;;5095699;28;20047;-61
2023/10/03 02:10:45;;;;;;;35.45;14.95;;;;;;;;;;5104009;28;20039;-61
2023/10/03 02:13:14;;;;;;;44.30;15.10;;;;;;;;;;5096639;28;20493;-61
2023/10/03 02:15:40;;;;;;;36.75;16.25;;;;;;;;;;5071150;28;20676;-61
2023/10/03 02:18:09;;;;;;;37.65;15.95;;;;;;;;;;5082753;28;20274;-61
2023/10/03 02:20:47;;;;;;;36.90;15.25;;;;;;;;;;5097845;28;20043;-61
2023/10/03 02:23:17;;;;;;;47.05;16.60;;;;;;;;;;5099802;27;20161;-61
2023/10/03 02:25:44;;;;;;;38.08;15.48;;;;;;;;;;5085014;28;20157;-61
2023/10/03 02:28:10;;;;;;;41.95;15.73;;;;;;;;;;5087259;27;20046;-61
2023/10/03 02:30:36;;;;;;;43.15;16.02;;;;;;;;;;5104732;28;20071;-61
2023/10/03 02:33:08;;;;;;;47.80;16.25;;;;;;;;;;5103959;27;20240;-61
2023/10/03 02:35:35;;;;;;;43.88;16.65;;;;;;;;;;5103522;28;20039;-61
2023/10/03 02:38:04;;;;;;;35.78;15.85;;;;;;;;;;5067307;28;20142;-61
2023/10/03 02:40:32;;;;;;;45.88;16.17;;;;;;;;;;5100491;27;20050;-61
2023/10/03 02:42:59;;;;;;;34.45;14.70;;;;;;;;;;5103742;28;20055;-61
2023/10/03 02:45:25;;;;;;;42.13;15.93;;;;;;;;;;5098958;28;20047;-61
2023/10/03 02:47:55;;;;;;;42.47;15.45;;;;;;;;;;5111935;27;20082;-61
2023/10/03 02:50:26;;;;;;;43.55;15.80;;;;;;;;;;5103241;28;20101;-61
2023/10/03 02:52:56;;;;;;;43.15;16.25;;;;;;;;;;5100528;28;20040;-61
2023/10/03 02:55:22;;;;;;;38.75;15.10;;;;;;;;;;5097964;28;20127;-62
2023/10/03 02:57:49;;;;;;;38.75;14.45;;;;;;;;;;5096753;28;20130;-61
2023/10/03 03:00:15;;;;;;;37.20;15.15;;;;;;;;;;5096854;28;20104;-61
2023/10/03 03:02:42;;;;;;;40.08;15.27;;;;;;;;;;5095156;28;20047;-61
2023/10/03 03:05:15;;;;;;;44.28;15.18;;;;;;;;;;5080788;28;20043;-61
2023/10/03 03:07:41;;;;;;;40.47;15.75;;;;;;;;;;5090564;28;20051;-62
2023/10/03 03:10:08;;;;;;;45.83;16.05;;;;;;;;;;5094516;28;20040;-61
2023/10/03 03:12:35;;;;;;;43.17;16.08;;;;;;;;;;5089172;28;20123;-62
2023/10/03 03:15:04;;;;;;;37.00;14.68;;;;;;;;;;5101709;28;20551;-61
2023/10/03 03:17:31;;;;;;;39.55;14.75;;;;;;;;;;5086428;28;20489;-61
2023/10/03 03:19:59;;;;;;;42.70;16.55;;;;;;;;;;5087683;28;20043;-61
2023/10/03 03:22:26;;;;;;;35.25;15.00;;;;;;;;;;5084526;27;20060;-61
2023/10/03 03:24:53;;;;;;;40.55;14.93;;;;;;;;;;5097437;27;20495;-61
2023/10/03 03:27:23;;;;;;;45.50;15.07;;;;;;;;;;5083180;28;20079;-61
2023/10/03 03:30:23;;;;;;;39.53;14.93;;;;;;;;;;5099085;28;20071;-61
2023/10/03 03:32:45;;;;;;;41.78;14.35;;;;;;;;;;5101499;28;20044;-62
2023/10/03 03:35:11;;;;;;;40.38;14.82;;;;;;;;;;5097944;28;20036;-61
2023/10/03 03:37:38;;;;;;;38.40;14.57;;;;;;;;;;5100051;27;20123;-61
2023/10/03 03:40:12;;;;;;;38.15;14.32;;;;;;;;;;5092676;28;20097;-61
2023/10/03 03:42:38;;;;;;;39.08;13.48;;;;;;;;;;5078215;28;20054;-61
2023/10/03 03:45:04;;;;;;;34.38;13.45;;;;;;;;;;5090855;28;20036;-61
2023/10/03 03:47:33;;;;;;;38.08;13.35;;;;;;;;;;5097035;28;20131;-61
2023/10/03 03:50:10;;;;;;;36.25;13.65;;;;;;;;;;5102697;28;20079;-61
2023/10/03 03:52:36;;;;;;;39.38;13.73;;;;;;;;;;5080209;28;20044;-61
2023/10/03 03:55:04;;;;;;;35.15;12.80;;;;;;;;;;5100175;28;20127;-61
2023/10/03 03:57:30;;;;;;;34.55;13.88;;;;;;;;;;5097817;28;20052;-61
2023/10/03 03:59:56;;;;;;;35.35;13.68;;;;;;;;;;5098421;28;20074;-61
2023/10/03 04:02:23;;;;;;;35.95;13.57;;;;;;;;;;5094529;28;20039;-61
2023/10/03 04:04:49;;;;;;;33.75;13.05;;;;;;;;;;5100899;28;20111;-60
2023/10/03 04:07:16;;;;;;;41.53;14.10;;;;;;;;;;5106125;27;20131;-60
2023/10/03 04:09:42;;;;;;;35.22;13.57;;;;;;;;;;5097083;27;20043;-61
2023/10/03 04:12:08;;;;;;;36.97;13.27;;;;;;;;;;5089138;28;20047;-61
2023/10/03 04:14:34;;;;;;;36.75;13.40;;;;;;;;;;5094407;28;20039;-61
2023/10/03 04:17:00;;;;;;;34.55;13.43;;;;;;;;;;5109144;27;20081;-61
2023/10/03 04:19:26;;;;;;;42.42;13.93;;;;;;;;;;5094293;28;20101;-62
2023/10/03 04:21:52;;;;;;;34.15;13.00;;;;;;;;;;5103544;27;20122;-61
2023/10/03 04:24:20;;;;;;;35.22;12.70;;;;;;;;;;5104098;28;20052;-62
2023/10/03 04:26:46;;;;;;;34.72;12.73;;;;;;;;;;5081521;28;20435;-61
2023/10/03 04:29:13;;;;;;;43.03;14.05;;;;;;;;;;5087327;28;20055;-61
2023/10/03 04:31:40;;;;;;;36.40;12.37;;;;;;;;;;5086882;28;20578;-61
2023/10/03 04:34:09;;;;;;;33.72;13.60;;;;;;;;;;5084927;28;20044;-61
2023/10/03 04:36:36;;;;;;;33.25;12.68;;;;;;;;;;5109623;28;20433;-61
2023/10/03 04:39:02;;;;;;;30.33;12.57;;;;;;;;;;5102364;28;20090;-61
2023/10/03 04:41:28;;;;;;;35.38;12.18;;;;;;;;;;5103987;28;20092;-61
2023/10/03 04:43:55;;;;;;;36.42;12.30;;;;;;;;;;5104180;28;20493;-61
2023/10/03 04:46:21;;;;;;;30.25;11.43;;;;;;;;;;5102963;28;20043;-61
2023/10/03 04:48:49;;;;;;;35.65;12.05;;;;;;;;;;5102170;28;20071;-61
2023/10/03 04:51:16;;;;;;;30.63;11.23;;;;;;;;;;5103405;28;20066;-61
2023/10/03 04:53:41;;;;;;;31.05;11.77;;;;;;;;;;5102925;28;20057;-62
2023/10/03 04:56:08;;;;;;;32.45;11.35;;;;;;;;;;5097428;28;20035;-61
2023/10/03 04:58:34;;;;;;;39.05;12.35;;;;;;;;;;5098959;28;20082;-61
2023/10/03 05:01:00;;;;;;;28.88;11.88;;;;;;;;;;5097383;28;20076;-61
2023/10/03 05:03:25;;;;;;;34.13;11.82;;;;;;;;;;5095012;28;20040;-61
2023/10/03 05:05:52;;;;;;;29.52;11.43;;;;;;;;;;5099569;28;20043;-61
2023/10/03 05:08:19;;;;;;;32.28;11.73;;;;;;;;;;5092510;28;20065;-61
2023/10/03 05:10:45;;;;;;;29.45;11.57;;;;;;;;;;5084886;28;20040;-61
2023/10/03 05:13:11;;;;;;;32.88;11.50;;;;;;;;;;5098808;28;20040;-61
2023/10/03 05:15:38;;;;;;;30.08;12.18;;;;;;;;;;5084790;28;20044;-62
2023/10/03 05:18:04;;;;;;;32.45;12.25;;;;;;;;;;5083899;28;20059;-61
2023/10/03 05:20:38;;;;;;;34.67;11.20;;;;;;;;;;5090469;28;20148;-62
2023/10/03 05:23:05;;;;;;;34.85;12.27;;;;;;;;;;5100980;28;20051;-62
2023/10/03 05:25:37;;;;;;;29.20;10.85;;;;;;;;;;5099262;28;20093;-61
2023/10/03 05:28:05;;;;;;;34.30;12.32;;;;;;;;;;5096901;28;20047;-61
2023/10/03 05:30:33;;;;;;;28.90;10.30;;;;;;;;;;5106279;28;20051;-61
2023/10/03 05:32:59;;;;;;;34.53;11.95;;;;;;;;;;5105156;27;20320;-62
2023/10/03 05:35:26;;;;;;;24.38;10.23;;;;;;;;;;5105848;27;20085;-62
2023/10/03 05:37:52;;;;;;;29.75;10.60;;;;;;;;;;5107178;27;20530;-62
2023/10/03 05:40:22;;;;;;;28.08;10.93;;;;;;;;;;5103184;27;20039;-62
2023/10/03 05:42:48;;;;;;;27.40;10.30;;;;;;;;;;5106490;27;20057;-61
2023/10/03 05:45:15;;;;;;;31.48;11.30;;;;;;;;;;5099963;28;20043;-62
2023/10/03 05:47:44;;;;;;;38.70;10.73;;;;;;;;;;5111500;27;20040;-62
2023/10/03 05:50:10;;;;;;;;;;;;;;;;;;5099215;28;20070;-61
2023/10/03 05:52:36;;;;;;;22.98;9.98;;;;;;;;;;5083037;28;20565;-61
2023/10/03 05:55:02;;;;;;;22.83;9.50;;;;;;;;;;5099849;28;20040;-61
2023/10/03 05:57:28;;;;;;;27.75;10.07;;;;;;;;;;5099030;27;20119;-61
2023/10/03 05:59:55;;;;;;;29.55;10.35;;;;;;;;;;5100452;27;20044;-61
2023/10/03 06:02:21;;;;;;;31.02;10.15;;;;;;;;;;5094807;28;20214;-61
2023/10/03 06:04:47;;;;;;;25.95;9.43;;;;;;;;;;5097906;27;20097;-62
2023/10/03 06:07:13;;;;;;;23.00;8.95;;;;;;;;;;5098178;28;20112;-62
2023/10/03 06:09:39;;;;;;;23.70;8.60;;;;;;;;;;5094746;28;20141;-60
2023/10/03 06:12:05;;;;;;;26.75;8.25;;;;;;;;;;5093940;28;20724;-60
2023/10/03 06:14:33;;;;;;;22.42;6.97;;;;;;;;;;5092068;27;20066;-61
2023/10/03 06:16:59;;;;;;;17.70;6.70;;;;;;;;;;5098573;27;20083;-60
2023/10/03 06:19:25;;;;;;;23.50;6.82;;;;;;;;;;5098918;27;20078;-61
2023/10/03 06:21:51;;;;;;;19.75;6.75;;;;;;;;;;5101318;28;20049;-61
2023/10/03 06:24:17;;;;;;;22.05;5.78;;;;;;;;;;5094053;28;20112;-61
2023/10/03 06:26:47;;;;;;;20.33;5.95;;;;;;;;;;5070403;28;20051;-61
2023/10/03 06:29:15;;;;;;;17.60;5.18;;;;;;;;;;5093015;28;20054;-61
2023/10/03 06:31:41;;;;;;;17.83;5.72;;;;;;;;;;5089687;28;20039;-61
2023/10/03 06:34:07;;;;;;;21.20;7.20;;;;;;;;;;5098969;28;20047;-61
2023/10/03 06:36:34;;;;;;;22.75;6.38;;;;;;;;;;5101563;28;20051;-60
2023/10/03 06:39:00;;;;;;;22.73;6.13;;;;;;;;;;5101741;28;20562;-61
2023/10/03 06:41:26;;;;;;;20.17;4.95;;;;;;;;;;5101439;27;20054;-60
2023/10/03 06:43:52;;;;;;;19.58;5.05;;;;;;;;;;5101185;28;20046;-61
2023/10/03 06:46:18;;;;;;;15.52;4.30;;;;;;;;;;5102077;27;20392;-61
2023/10/03 06:48:51;;;;;;;15.23;4.50;;;;;;;;;;5110704;27;20051;-61
2023/10/03 06:51:18;;;;;;;16.80;4.80;;;;;;;;;;5102340;28;20168;-61
2023/10/03 06:53:47;;;;;;;14.95;3.40;;;;;;;;;;5101648;27;20056;-60
2023/10/03 06:56:13;;;;;;;15.15;3.15;;;;;;;;;;5097685;28;20032;-61
2023/10/03 06:58:39;;;;;;;18.65;3.70;;;;;;;;;;5097708;28;20047;-61
2023/10/03 07:01:05;;;;;;;14.60;3.00;;;;;;;;;;5095473;28;20040;-61
2023/10/03 07:03:31;;;;;;;14.60;2.88;;;;;;;;;;5081498;28;20044;-61
2023/10/03 07:05:58;;;;;;;11.73;2.92;;;;;;;;;;5091725;28;20040;-61
2023/10/03 07:08:27;;;;;;;10.32;2.88;;;;;;;;;;5096799;28;20039;-61
2023/10/03 07:10:54;;;;;;;8.48;3.20;;;;;;;;;;5090201;28;20039;-61
2023/10/03 07:13:20;;;;;;;14.43;2.65;;;;;;;;;;5092061;28;20052;-61
2023/10/03 07:15:46;;;;;;;17.08;3.20;;;;;;;;;;5088985;28;20768;-62
2023/10/03 07:18:12;;;;;;;12.63;2.80;;;;;;;;;;5091949;28;20039;-60
2023/10/03 07:20:40;;;;;;;10.05;2.88;;;;;;;;;;5085922;28;20085;-60
2023/10/03 07:23:06;;;;;;;11.10;3.65;;;;;;;;;;5089778;27;21161;-60
2023/10/03 07:25:32;;;;;;;17.80;4.20;;;;;;;;;;5083857;28;20036;-60
2023/10/03 07:27:59;;;;;;;13.30;3.30;;;;;;;;;;5102236;27;20047;-60
2023/10/03 07:30:25;;;;;;;11.65;3.63;;;;;;;;;;5102654;27;20031;-60
2023/10/03 07:32:51;;;;;;;19.98;4.30;;;;;;;;;;5097959;28;20044;-60
2023/10/03 07:35:19;;;;;;;16.38;3.88;;;;;;;;;;5099746;28;20042;-60
2023/10/03 07:37:45;;;;;;;11.02;3.45;;;;;;;;;;5096241;28;20051;-60
2023/10/03 07:40:11;;;;;;;13.07;4.28;;;;;;;;;;5093382;28;20059;-60
2023/10/03 07:42:42;;;;;;;11.55;3.60;;;;;;;;;;5099449;27;20684;-60
2023/10/03 07:45:09;;;;;;;15.10;3.60;;;;;;;;;;5097968;28;20062;-60
2023/10/03 07:47:37;;;;;;;13.52;4.03;;;;;;;;;;5101830;28;20734;-60
2023/10/03 07:50:03;;;;;;;19.02;4.18;;;;;;;;;;5093954;28;20509;-60
2023/10/03 07:52:29;;;;;;;10.38;3.80;;;;;;;;;;5099222;28;20111;-61
2023/10/03 07:54:56;;;;;;;11.32;4.13;;;;;;;;;;5093837;28;20051;-60
2023/10/03 07:57:26;;;;;;;13.43;3.63;;;;;;;;;;5086357;28;20682;-61
2023/10/03 07:59:54;;;;;;;13.07;3.88;;;;;;;;;;5099928;28;20126;-60
2023/10/03 08:02:26;;;;;;;16.95;4.53;;;;;;;;;;5096115;28;20039;-60
2023/10/03 08:04:52;;;;;;;13.25;4.70;;;;;;;;;;5097046;28;20056;-61
2023/10/03 08:07:22;;;;;;;13.38;4.45;;;;;;;;;;5088728;28;20038;-60
2023/10/03 08:09:51;;;;;;;13.15;4.35;;;;;;;;;;5094031;28;20040;-60
2023/10/03 08:12:23;;;;;;;15.10;4.22;;;;;;;;;;5092434;28;20037;-60
2023/10/03 08:14:54;;;;;;;12.45;3.58;;;;;;;;;;5091962;28;20043;-60
2023/10/03 08:17:20;;;;;;;14.77;3.67;;;;;;;;;;5092925;28;20042;-61
2023/10/03 08:19:49;;;;;;;10.27;2.85;;;;;;;;;;5091361;28;20100;-60
2023/10/03 08:22:15;;;;;;;;;;;;;;;;;;5086771;28;20052;-60
2023/10/03 08:24:44;;;;;;;11.68;2.50;;;;;;;;;;5095517;28;19931;-60
2023/10/03 08:27:18;;;;;;;9.57;2.80;;;;;;;;;;5090360;28;20275;-60
2023/10/03 08:29:45;;;;;;;10.82;2.35;;;;;;;;;;5100049;28;20048;-60
2023/10/03 08:32:11;;;;;;;11.07;2.20;;;;;;;;;;5097650;28;20152;-60
2023/10/03 08:34:43;;;;;;;7.95;1.90;;;;;;;;;;5093085;28;20536;-60
2023/10/03 08:37:18;;;;;;;11.20;2.42;;;;;;;;;;5102802;28;20043;-60
2023/10/03 08:39:48;;;;;;;10.75;1.75;;;;;;;;;;5100694;28;20608;-60
2023/10/03 08:42:17;;;;;;;8.25;1.90;;;;;;;;;;5098907;28;20035;-60
2023/10/03 08:44:53;;;;;;;7.90;1.55;;;;;;;;;;5076905;28;20549;-60
2023/10/03 08:47:28;;;;;;;9.18;1.35;;;;;;;;;;5107502;28;20071;-60
2023/10/03 08:49:57;;;;;;;8.43;1.90;;;;;;;;;;5075219;28;20051;-60
2023/10/03 08:52:39;;;;;;;7.22;1.40;;;;;;;;;;5096351;28;20071;-60
2023/10/03 08:55:06;;;;;;;9.55;1.30;;;;;;;;;;5097383;28;20052;-60
2023/10/03 08:57:35;;;;;;;8.13;1.67;;;;;;;;;;5093821;28;20044;-60
2023/10/03 09:00:01;;;;;;;9.00;1.23;;;;;;;;;;5097920;28;20511;-60
2023/10/03 09:02:28;;;;;;;7.40;1.08;;;;;;;;;;5094464;28;20090;-60
2023/10/03 09:04:55;;;;;;;9.13;1.17;;;;;;;;;;5080635;28;20083;-61
2023/10/03 09:07:23;;;;;;;7.22;0.80;;;;;;;;;;5098219;27;20059;-60
2023/10/03 09:09:50;;;;;;;4.68;0.70;;;;;;;;;;5102052;27;20043;-60
2023/10/03 09:12:20;;;;;;;8.93;1.10;;;;;;;;;;5095345;27;20118;-60
2023/10/03 09:14:53;;;;;;;9.43;0.98;;;;;;;;;;5104401;28;20051;-60
2023/10/03 09:17:23;;;;;;;7.30;0.70;;;;;;;;;;5103831;27;20118;-60
2023/10/03 09:19:50;;;;;;;5.70;0.40;;;;;;;;;;5102778;28;20051;-60
2023/10/03 09:22:32;;;;;;;2.33;0.40;;;;;;;;;;5093547;28;20169;-60
2023/10/03 09:24:58;;;;;;;6.07;0.80;;;;;;;;;;5106148;27;20044;-60
2023/10/03 09:27:30;;;;;;;4.13;0.30;;;;;;;;;;5106934;27;20598;-62
2023/10/03 09:29:58;;;;;;;2.22;0.28;;;;;;;;;;5095361;28;20048;-61
2023/10/03 09:32:24;;;;;;;5.57;0.35;;;;;;;;;;5099030;27;20043;-61
2023/10/03 09:34:57;;;;;;;5.20;0.55;;;;;;;;;;5097789;28;20077;-60
2023/10/03 09:37:28;;;;;;;5.82;0.40;;;;;;;;;;5109694;27;20057;-61
2023/10/03 09:39:58;;;;;;;6.45;0.57;;;;;;;;;;5110182;27;20137;-61
2023/10/03 09:42:25;;;;;;;4.15;0.32;;;;;;;;;;5103784;28;20497;-61
2023/10/03 09:44:58;;;;;;;2.15;0.35;;;;;;;;;;5103948;27;20044;-60
2023/10/03 09:47:30;;;;;;;5.57;0.22;;;;;;;;;;5110405;27;20043;-60
2023/10/03 09:50:03;;;;;;;6.13;0.20;;;;;;;;;;5111233;27;20088;-60
2023/10/03 09:52:32;;;;;;;1.42;0.20;;;;;;;;;;5100571;27;20115;-60
2023/10/03 09:55:00;;;;;;;4.40;0.43;;;;;;;;;;5096078;28;20098;-61
2023/10/03 09:57:29;;;;;;;4.32;0.20;;;;;;;;;;5097055;27;20040;-61
2023/10/03 09:59:56;;;;;;;4.60;0.38;;;;;;;;;;5093026;28;20048;-61
2023/10/03 10:02:36;;;;;;;4.25;0.50;;;;;;;;;;5102864;27;20094;-61
2023/10/03 10:05:19;;;;;;;4.93;0.40;;;;;;;;;;5075344;28;20051;-60
2023/10/03 10:07:58;;;;;;;6.40;0.32;;;;;;;;;;5107214;27;20280;-61
2023/10/03 10:10:25;;;;;;;2.08;0.50;;;;;;;;;;5087098;28;20055;-61
2023/10/03 10:13:20;;;;;;;4.25;0.22;;;;;;;;;;5086457;28;20055;-61
2023/10/03 10:16:07;;;;;;;5.95;0.45;;;;;;;;;;5065000;28;20060;-60
2023/10/03 10:18:45;;;;;;;3.30;0.40;;;;;;;;;;5100393;28;20066;-61
2023/10/03 10:21:20;;;;;;;1.73;0.20;;;;;;;;;;5101188;28;20055;-61
2023/10/03 10:24:06;;;;;;;3.03;0.30;;;;;;;;;;5099979;27;20055;-61
2023/10/03 10:26:34;;;;;;;5.82;0.30;;;;;;;;;;5093505;27;20409;-61
2023/10/03 10:29:08;;;;;;;1.60;0.20;;;;;;;;;;5101360;28;20040;-61
2023/10/03 10:31:42;;;;;;;2.55;0.30;;;;;;;;;;5095628;28;20044;-61
2023/10/03 10:34:20;;;;;;;2.88;0.40;;;;;;;;;;5093045;27;20044;-61
2023/10/03 10:37:02;;;;;;;7.10;0.30;;;;;;;;;;5093700;28;20094;-61
2023/10/03 10:39:47;;;;;;;4.35;0.38;;;;;;;;;;5085618;28;20561;-61
2023/10/03 10:42:14;;;;;;;3.28;0.50;;;;;;;;;;5089273;28;20071;-61
2023/10/03 10:45:01;;;;;;;2.25;0.20;;;;;;;;;;5093204;27;20131;-60
2023/10/03 10:47:27;;;;;;;4.22;0.30;;;;;;;;;;5102337;27;20565;-61
2023/10/03 10:49:57;;;;;;;3.65;0.47;;;;;;;;;;5105294;27;20043;-61
2023/10/03 10:52:24;;;;;;;3.05;0.30;;;;;;;;;;5109934;27;20047;-61
2023/10/03 10:54:50;;;;;;;2.65;0.30;;;;;;;;;;5094625;27;20113;-60
2023/10/03 10:57:17;;;;;;;4.38;0.65;;;;;;;;;;5101392;27;20039;-60
2023/10/03 10:59:43;;;;;;;6.30;0.90;;;;;;;;;;5099224;28;20126;-60
2023/10/03 11:02:22;;;;;;;2.30;0.47;;;;;;;;;;5095454;28;20070;-61
2023/10/03 11:04:58;;;;;;;4.95;0.55;;;;;;;;;;5095176;28;20157;-61
2023/10/03 11:07:26;;;;;;;3.92;0.52;;;;;;;;;;5084095;28;20044;-61
2023/10/03 11:09:54;;;;;;;3.92;0.50;;;;;;;;;;5071020;28;20042;-61
2023/10/03 11:12:26;;;;;;;4.90;0.70;;;;;;;;;;5086403;28;20101;-61
2023/10/03 11:14:56;;;;;;;6.28;0.50;;;;;;;;;;5087913;28;20051;-61
2023/10/03 11:17:22;;;;;;;5.05;0.60;;;;;;;;;;5067265;28;20082;-61
2023/10/03 11:19:49;;;;;;;6.20;0.88;;;;;;;;;;5088615;28;20048;-61
2023/10/03 11:22:17;;;;;;;6.70;0.70;;;;;;;;;;5081880;28;20056;-61
2023/10/03 11:24:44;;;;;;;6.72;0.70;;;;;;;;;;5091573;28;20051;-61
2023/10/03 11:27:11;;;;;;;6.50;0.50;;;;;;;;;;5100317;28;20053;-61
2023/10/03 11:29:39;;;;;;;7.18;0.73;;;;;;;;;;5095784;28;20047;-61
2023/10/03 11:32:17;;;;;;;2.50;0.57;;;;;;;;;;5097369;28;20054;-61
2023/10/03 11:34:43;;;;;;;5.22;0.93;;;;;;;;;;5092355;28;20052;-60
2023/10/03 11:37:09;;;;;;;4.30;0.70;;;;;;;;;;5096978;27;20316;-60
2023/10/03 11:39:38;;;;;;;5.38;0.60;;;;;;;;;;5091124;27;20544;-61
2023/10/03 11:42:08;;;;;;;1.55;0.40;;;;;;;;;;5093762;28;20075;-60
2023/10/03 11:44:36;;;;;;;1.33;0.30;;;;;;;;;;5087963;27;20043;-60
2023/10/03 11:47:03;;;;;;;1.45;0.57;;;;;;;;;;5110492;27;20091;-61
2023/10/03 11:49:30;;;;;;;4.88;0.50;;;;;;;;;;5097926;28;20542;-61
2023/10/03 11:51:56;;;;;;;3.28;0.70;;;;;;;;;;5098540;28;20047;-60
2023/10/03 11:54:22;;;;;;;7.80;1.05;;;;;;;;;;5101399;27;20050;-60
2023/10/03 11:56:48;;;;;;;3.05;0.70;;;;;;;;;;5077625;28;20039;-60
2023/10/03 11:59:15;;;;;;;4.30;0.80;;;;;;;;;;5090077;28;20050;-60
2023/10/03 12:01:56;;;;;;;3.75;0.65;;;;;;;;;;5098058;28;20063;-61
2023/10/03 12:04:23;;;;;;;5.28;0.70;;;;;;;;;;5091806;28;20147;-60
2023/10/03 12:06:49;;;;;;;4.55;0.85;;;;;;;;;;5063712;28;20803;-60
2023/10/03 12:09:17;;;;;;;4.50;1.08;;;;;;;;;;5093309;28;20166;-60
2023/10/03 12:11:43;;;;;;;6.40;1.07;;;;;;;;;;5096462;27;20071;-60
2023/10/03 12:14:09;;;;;;;5.03;1.10;;;;;;;;;;5080869;27;20107;-61
2023/10/03 12:16:38;;;;;;;3.90;1.13;;;;;;;;;;5098906;27;20059;-60
2023/10/03 12:19:04;;;;;;;;;;;;;;;;;;5098769;28;20047;-61
2023/10/03 12:21:30;;;;;;;2.67;1.08;;;;;;;;;;5093963;28;20007;-61
2023/10/03 12:23:57;;;;;;;4.20;1.20;;;;;;;;;;5095465;28;20105;-60
2023/10/03 12:26:24;;;;;;;8.63;1.25;;;;;;;;;;5088047;28;20075;-61
2023/10/03 12:28:52;;;;;;;6.65;1.17;;;;;;;;;;5070131;28;20451;-60
2023/10/03 12:31:25;;;;;;;6.28;1.23;;;;;;;;;;5089713;28;20112;-61
2023/10/03 12:33:51;;;;;;;4.82;1.30;;;;;;;;;;5077498;28;20043;-61
2023/10/03 12:36:17;;;;;;;6.30;1.40;;;;;;;;;;5106347;28;20047;-64
2023/10/03 12:38:46;;;;;;;6.47;1.33;;;;;;;;;;5089744;28;20539;-62
2023/10/03 12:41:13;;;;;;;7.93;1.50;;;;;;;;;;5091002;27;20058;-61
2023/10/03 12:43:46;;;;;;;4.82;1.38;;;;;;;;;;5096387;27;20052;-61
2023/10/03 12:46:13;;;;;;;8.35;1.17;;;;;;;;;;5109472;27;20072;-64
2023/10/03 12:48:40;;;;;;;6.88;1.30;;;;;;;;;;5103618;27;20079;-61
2023/10/03 12:51:06;;;;;;;7.05;1.20;;;;;;;;;;5095291;28;20712;-61
2023/10/03 12:53:36;;;;;;;6.78;1.20;;;;;;;;;;5091809;28;20503;-61
2023/10/03 12:56:08;;;;;;;7.85;1.50;;;;;;;;;;5095661;28;20083;-61
2023/10/03 12:58:34;;;;;;;7.43;1.45;;;;;;;;;;5088595;28;20075;-61
2023/10/03 13:01:00;;;;;;;8.15;2.05;;;;;;;;;;5094178;28;20040;-61
2023/10/03 13:03:26;;;;;;;4.05;1.38;;;;;;;;;;5100830;28;20694;-61
2023/10/03 13:05:52;;;;;;;6.38;1.63;;;;;;;;;;5092940;28;20048;-61
2023/10/03 13:08:18;;;;;;;8.50;1.70;;;;;;;;;;5097519;28;20040;-61
2023/10/03 13:10:44;;;;;;;6.05;1.40;;;;;;;;;;5101029;27;20028;-60
2023/10/03 13:13:12;;;;;;;4.13;1.13;;;;;;;;;;5082873;28;20471;-59
2023/10/03 13:15:38;;;;;;;9.68;1.33;;;;;;;;;;5088677;27;20482;-59
2023/10/03 13:18:04;;;;;;;4.75;1.33;;;;;;;;;;5087979;27;20044;-60
2023/10/03 13:20:30;;;;;;;7.97;1.90;;;;;;;;;;5091857;28;20044;-59
2023/10/03 13:22:57;;;;;;;11.55;1.80;;;;;;;;;;5084273;28;20059;-59
2023/10/03 13:25:24;;;;;;;6.55;1.60;;;;;;;;;;5092720;28;20126;-59
2023/10/03 13:27:52;;;;;;;10.88;1.60;;;;;;;;;;5102038;27;20112;-60
2023/10/03 13:30:18;;;;;;;6.18;1.38;;;;;;;;;;5098328;28;20046;-59
2023/10/03 13:32:50;;;;;;;6.28;1.67;;;;;;;;;;5098964;27;20122;-62
2023/10/03 13:35:17;;;;;;;8.95;1.98;;;;;;;;;;5099517;27;20047;-61
2023/10/03 13:37:46;;;;;;;9.85;1.40;;;;;;;;;;5085494;28;20485;-62
2023/10/03 13:40:12;;;;;;;12.30;1.75;;;;;;;;;;5089583;28;20052;-61
2023/10/03 13:42:38;;;;;;;7.28;1.33;;;;;;;;;;5091634;28;20105;-62
2023/10/03 13:45:05;;;;;;;12.40;1.90;;;;;;;;;;5098068;28;20043;-63
2023/10/03 13:47:31;;;;;;;7.35;1.40;;;;;;;;;;5100853;27;20077;-62
2023/10/03 13:49:58;;;;;;;7.53;1.50;;;;;;;;;;5099946;28;20043;-62
2023/10/03 13:52:24;;;;;;;5.05;1.08;;;;;;;;;;5096388;27;20043;-62
2023/10/03 13:54:50;;;;;;;6.85;1.20;;;;;;;;;;5100104;28;20123;-62
2023/10/03 13:57:16;;;;;;;11.15;1.35;;;;;;;;;;5093896;27;20440;-62
2023/10/03 13:59:44;;;;;;;9.48;1.35;;;;;;;;;;5103597;28;20058;-62
2023/10/03 14:02:13;;;;;;;9.20;1.38;;;;;;;;;;5095728;28;20044;-62
2023/10/03 14:04:39;;;;;;;12.35;1.20;;;;;;;;;;5097158;28;20071;-62
2023/10/03 14:07:05;;;;;;;7.72;1.08;;;;;;;;;;5097597;27;20132;-61
2023/10/03 14:09:32;;;;;;;8.38;1.98;;;;;;;;;;5094875;27;20048;-62
2023/10/03 14:12:05;;;;;;;6.72;0.98;;;;;;;;;;5094686;27;20039;-62
2023/10/03 14:14:34;;;;;;;6.18;1.23;;;;;;;;;;5084360;28;20079;-61
2023/10/03 14:17:00;;;;;;;8.77;1.63;;;;;;;;;;5089486;28;20039;-61
2023/10/03 14:19:38;;;;;;;6.03;1.00;;;;;;;;;;5088196;28;20036;-61
2023/10/03 14:22:05;;;;;;;3.90;1.00;;;;;;;;;;5071382;28;20056;-62
2023/10/03 14:24:31;;;;;;;6.28;1.35;;;;;;;;;;5084268;28;20052;-61
2023/10/03 14:26:57;;;;;;;5.18;1.00;;;;;;;;;;5089246;28;20066;-61
2023/10/03 14:29:23;;;;;;;3.58;0.70;;;;;;;;;;5100270;28;20071;-61
2023/10/03 14:31:50;;;;;;;6.22;0.95;;;;;;;;;;5095576;28;20439;-62
2023/10/03 14:34:16;;;;;;;3.90;0.65;;;;;;;;;;5095957;28;20071;-61
2023/10/03 14:36:45;;;;;;;7.72;1.00;;;;;;;;;;5079125;28;20047;-62
2023/10/03 14:39:24;;;;;;;7.00;1.23;;;;;;;;;;5094345;28;20481;-62